Novomar — 5BCT2 — position and weather

sailwx.info

Track history (hours):
 
Tides and Currents Weather Stations Pressure Air Temp Water Temp Dewpoint Dewpoint Depression Visibility Wind Speed Wind Dir Waves Ship Positions

Novomar

Last reported at 2014-Nov-27 02:33 UTC. Time now 2014-Nov-27 02:50 UTC.
Position N 38°24' W 009°19'.

Length 89 m; draft 3 m.

Type: Cargo ship. MMSI: 210974000.

Date/timePositionNaut miles runAvg speedWind from/ knotsBaromVisibWave heightAir tempDewpointWater temp
2014-Nov-27 02:33N 38°24' W 009°19'  
2014-Nov-21 05:25N 43°29' W 002°42'8 8.1
2014-Nov-21 04:27N 43°36' W 002°47'10 9.6
2014-Nov-21 03:22N 43°45' W 002°53'  
2014-Nov-18 13:18N 50°34' E 000°09'811.3
2014-Nov-18 12:33N 50°37' E 000°22'1111.2
2014-Nov-18 11:34N 50°41' E 000°38'1110.7
2014-Nov-18 10:34N 50°47' E 000°52'19 9.6
2014-Nov-18 08:32N 50°59' E 001°16'9 9.1
2014-Nov-18 07:34N 51°04' E 001°27'1010.1
2014-Nov-18 06:33N 51°11' E 001°40'1111.0
2014-Nov-18 05:33N 51°20' E 001°50'1211.8
2014-Nov-18 04:34N 51°30' E 001°60'168 9.8
2014-Nov-17 11:27N 53°34' E 005°06'910.2
2014-Nov-17 10:33N 53°37' E 005°20'1110.7
2014-Nov-17 09:33N 53°41' E 005°37'1110.6
2014-Nov-17 08:29N 53°45' E 005°55'58 9.8
2014-Nov-17 02:33N 53°59' E 007°31'  
Track history (hours):
 
Tides and Currents Weather Stations Pressure Air Temp Water Temp Dewpoint Dewpoint Depression Visibility Wind Speed Wind Dir Waves Ship Positions

Novomar

Last reported at 2014-Nov-27 02:33 UTC. Time now 2014-Nov-27 02:50 UTC.
Position N 38°24' W 009°19'.

Length 89 m; draft 3 m.

Type: Cargo ship. MMSI: 210974000.

Date/timePositionNaut miles runAvg speedWind from/ knotsBaromVisibWave heightAir tempDewpointWater temp
2014-Nov-27 02:33N 38°24' W 009°19'  
2014-Nov-21 05:25N 43°29' W 002°42'8 8.1
2014-Nov-21 04:27N 43°36' W 002°47'10 9.6
2014-Nov-21 03:22N 43°45' W 002°53'  
2014-Nov-18 13:18N 50°34' E 000°09'811.3
2014-Nov-18 12:33N 50°37' E 000°22'1111.2
2014-Nov-18 11:34N 50°41' E 000°38'1110.7
2014-Nov-18 10:34N 50°47' E 000°52'19 9.6
2014-Nov-18 08:32N 50°59' E 001°16'9 9.1
2014-Nov-18 07:34N 51°04' E 001°27'1010.1
2014-Nov-18 06:33N 51°11' E 001°40'1111.0
2014-Nov-18 05:33N 51°20' E 001°50'1211.8
2014-Nov-18 04:34N 51°30' E 001°60'168 9.8
2014-Nov-17 11:27N 53°34' E 005°06'910.2
2014-Nov-17 10:33N 53°37' E 005°20'1110.7
2014-Nov-17 09:33N 53°41' E 005°37'1110.6
2014-Nov-17 08:29N 53°45' E 005°55'58 9.8
2014-Nov-17 02:33N 53°59' E 007°31'  

Dump ship's entire track history